Terminal Aerodrome Forecast
Issued by NWS

Current Version | Previous Version | Text Only | Print | Product List | Glossary On
Versions: 1 2 3 4 5 6 7 8 9 10 11 12 13 14 15 16 17 18 19 20 21 22 23 24 25 26 27 28 29 30 31 32 33 34
000
FTPQ31 PGUM 252018 RRX
TAFGRO
TAF

TAF
PGWT 252018Z 2520/2618 12009KT P6SM VCSH FEW018 SCT040 SCT120
     FM260100 10012G22KT P6SM VCSH FEW020 SCT050
     FM260900 09010KT P6SM VCSH FEW020 SCT050=

USA.gov is the U.S. government's official web portal to all federal, state and local government web resources and services.